createdAt,value
2023-03-18T00:01:07.763Z,100.00
2023-03-18T00:03:37.321Z,100.00
2023-03-18T00:06:08.693Z,100.00
2023-03-18T00:08:37.635Z,100.00
2023-03-18T00:11:06.253Z,100.00
2023-03-18T00:13:34.739Z,100.00
2023-03-18T00:16:03.118Z,100.00
2023-03-18T00:18:31.693Z,100.00
2023-03-18T00:21:01.264Z,100.00
2023-03-18T00:23:33.567Z,100.00
2023-03-18T00:26:02.791Z,100.00
2023-03-18T00:28:31.646Z,100.00
2023-03-18T00:31:08.832Z,100.00
2023-03-18T00:33:37.947Z,100.00
2023-03-18T00:36:12.645Z,100.00
2023-03-18T00:38:43.116Z,100.00
2023-03-18T00:41:15.927Z,100.00
2023-03-18T00:43:52.930Z,100.00
2023-03-18T00:46:23.477Z,100.00
2023-03-18T00:48:52.359Z,100.00
2023-03-18T00:51:23.085Z,100.00
2023-03-18T00:53:54.712Z,100.00
2023-03-18T00:56:26.485Z,100.00
2023-03-18T00:58:54.804Z,100.00
2023-03-18T01:01:24.510Z,100.00
2023-03-18T01:03:52.779Z,100.00
2023-03-18T01:06:23.265Z,100.00
2023-03-18T01:08:53.863Z,100.00
2023-03-18T01:11:22.840Z,100.00
2023-03-18T01:13:51.583Z,100.00
2023-03-18T01:16:21.019Z,100.00
2023-03-18T01:18:49.900Z,100.00
2023-03-18T01:21:18.529Z,100.00
2023-03-18T01:23:54.274Z,100.00
2023-03-18T01:26:23.397Z,100.00
2023-03-18T01:28:51.687Z,100.00
2023-03-18T01:31:19.917Z,100.00
2023-03-18T01:33:49.919Z,100.00
2023-03-18T01:36:18.608Z,100.00
2023-03-18T01:39:01.453Z,100.00
2023-03-18T01:41:30.165Z,100.00
2023-03-18T01:44:02.334Z,100.00
2023-03-18T01:46:35.981Z,100.00
2023-03-18T01:49:07.633Z,100.00
2023-03-18T01:51:36.153Z,100.00
2023-03-18T01:54:07.884Z,100.00
2023-03-18T01:56:37.418Z,100.00
2023-03-18T01:59:06.381Z,100.00
2023-03-18T02:01:39.252Z,100.00
2023-03-18T02:04:10.293Z,100.00
2023-03-18T02:06:41.344Z,100.00
2023-03-18T02:09:12.123Z,100.00
2023-03-18T02:11:43.824Z,100.00
2023-03-18T02:14:13.909Z,100.00
2023-03-18T02:16:45.526Z,100.00
2023-03-18T02:19:17.232Z,100.00
2023-03-18T02:21:51.966Z,100.00
2023-03-18T02:24:28.832Z,100.00
2023-03-18T02:27:00.048Z,100.00
2023-03-18T02:29:40.080Z,100.00
2023-03-18T02:32:15.470Z,100.00
2023-03-18T02:34:44.227Z,100.00
2023-03-18T02:37:12.606Z,100.00
2023-03-18T02:39:43.649Z,100.00
2023-03-18T02:42:14.063Z,100.00
2023-03-18T02:44:49.548Z,100.00
2023-03-18T02:47:41.157Z,100.00
2023-03-18T02:50:09.859Z,100.00
2023-03-18T02:52:38.886Z,100.00
2023-03-18T02:55:08.912Z,100.00
2023-03-18T02:57:37.517Z,100.00
2023-03-18T03:00:09.270Z,100.00
2023-03-18T03:02:38.932Z,100.00
2023-03-18T03:05:09.181Z,100.00
2023-03-18T03:07:37.877Z,100.00
2023-03-18T03:10:09.431Z,100.00
2023-03-18T03:12:39.978Z,100.00
2023-03-18T03:15:13.551Z,100.00
2023-03-18T03:17:48.574Z,100.00
2023-03-18T03:20:19.037Z,100.00
2023-03-18T03:22:47.356Z,100.00
2023-03-18T03:25:19.504Z,100.00
2023-03-18T03:27:48.274Z,100.00
2023-03-18T03:30:18.410Z,100.00
2023-03-18T03:32:48.020Z,100.00
2023-03-18T03:35:18.828Z,100.00
2023-03-18T03:37:48.023Z,100.00
2023-03-18T03:40:20.486Z,100.00
2023-03-18T03:42:51.038Z,100.00
2023-03-18T03:45:20.536Z,100.00
2023-03-18T03:47:49.052Z,100.00
2023-03-18T03:50:20.198Z,100.00
2023-03-18T03:52:48.608Z,100.00
2023-03-18T03:55:18.173Z,100.00
2023-03-18T03:57:46.600Z,100.00
2023-03-18T04:00:16.622Z,100.00
2023-03-18T04:02:52.674Z,100.00
2023-03-18T04:05:23.585Z,100.00
2023-03-18T04:07:52.460Z,100.00
2023-03-18T04:10:27.462Z,100.00
2023-03-18T04:12:58.779Z,100.00
2023-03-18T04:15:29.315Z,100.00
2023-03-18T04:18:05.012Z,100.00
2023-03-18T04:20:34.340Z,100.00
2023-03-18T04:23:04.693Z,100.00
2023-03-18T04:25:33.320Z,100.00
2023-03-18T04:28:02.562Z,100.00
2023-03-18T04:30:32.627Z,100.00
2023-03-18T04:33:07.358Z,100.00
2023-03-18T04:35:36.491Z,100.00
2023-03-18T04:38:04.847Z,100.00
2023-03-18T04:40:34.610Z,100.00
2023-03-18T04:43:04.321Z,100.00
2023-03-18T04:45:34.068Z,100.00
2023-03-18T04:48:04.088Z,100.00
2023-03-18T04:50:39.858Z,100.00
2023-03-18T04:53:11.184Z,100.00
2023-03-18T04:55:40.820Z,100.00
2023-03-18T04:58:11.372Z,100.00
2023-03-18T05:00:45.028Z,100.00
2023-03-18T05:03:23.641Z,100.00
2023-03-18T05:05:53.361Z,100.00
2023-03-18T05:08:27.388Z,100.00
2023-03-18T05:10:56.378Z,100.00
2023-03-18T05:13:24.534Z,100.00
2023-03-18T05:15:53.939Z,100.00
2023-03-18T05:18:23.050Z,100.00
2023-03-18T05:20:54.923Z,100.00
2023-03-18T05:23:31.320Z,100.00
2023-03-18T05:25:59.958Z,100.00
2023-03-18T05:28:30.121Z,100.00
2023-03-18T05:31:15.480Z,100.00
2023-03-18T05:33:45.181Z,100.00
2023-03-18T05:36:16.055Z,100.00
2023-03-18T05:38:57.634Z,100.00
2023-03-18T05:41:26.322Z,100.00
2023-03-18T05:43:57.268Z,100.00
2023-03-18T05:46:27.150Z,100.00
2023-03-18T05:49:17.981Z,100.00
2023-03-18T05:51:58.532Z,100.00
2023-03-18T05:54:39.472Z,100.00
2023-03-18T05:57:09.158Z,100.00
2023-03-18T05:59:38.220Z,100.00
2023-03-18T06:02:07.027Z,100.00
2023-03-18T06:04:35.272Z,100.00
2023-03-18T06:07:07.856Z,100.00
2023-03-18T06:09:36.244Z,100.00
2023-03-18T06:12:05.431Z,100.00
2023-03-18T06:14:34.023Z,100.00
2023-03-18T06:17:03.996Z,100.00
2023-03-18T06:19:35.465Z,100.00
2023-03-18T06:22:07.945Z,100.00
2023-03-18T06:24:39.387Z,100.00
2023-03-18T06:27:12.464Z,100.00
2023-03-18T06:29:44.819Z,100.00
2023-03-18T06:32:16.196Z,100.00
2023-03-18T06:34:52.372Z,100.00
2023-03-18T06:37:24.673Z,100.00
2023-03-18T06:39:55.139Z,100.00
2023-03-18T06:42:23.957Z,100.00
2023-03-18T06:45:02.035Z,100.00
2023-03-18T06:47:43.051Z,100.00
2023-03-18T06:50:13.610Z,100.00
2023-03-18T06:52:43.716Z,100.00
2023-03-18T06:55:16.721Z,100.00
2023-03-18T06:57:46.831Z,100.00
2023-03-18T07:00:19.839Z,100.00
2023-03-18T07:02:49.667Z,100.00
2023-03-18T07:05:20.572Z,100.00
2023-03-18T07:07:50.913Z,100.00
2023-03-18T07:10:21.166Z,100.00
2023-03-18T07:12:52.308Z,100.00
2023-03-18T07:15:23.220Z,100.00
2023-03-18T07:17:55.601Z,100.00
2023-03-18T07:20:24.010Z,100.00
2023-03-18T07:22:53.333Z,100.00
2023-03-18T07:25:23.061Z,100.00
2023-03-18T07:27:52.435Z,100.00
2023-03-18T07:30:22.030Z,100.00
2023-03-18T07:32:50.823Z,100.00
2023-03-18T07:35:18.908Z,100.00
2023-03-18T07:37:47.253Z,100.00
2023-03-18T07:40:17.050Z,100.00
2023-03-18T07:42:46.587Z,98.54
2023-03-18T07:45:14.573Z,100.00
2023-03-18T07:47:43.329Z,99.29
2023-03-18T07:50:12.310Z,95.00
2023-03-18T07:52:42.302Z,98.84
2023-03-18T07:55:10.632Z,90.09
2023-03-18T07:57:40.719Z,92.14
2023-03-18T08:00:10.670Z,88.93
2023-03-18T08:02:42.597Z,89.84
2023-03-18T08:05:13.584Z,89.80
2023-03-18T08:07:41.730Z,88.39
2023-03-18T08:10:10.539Z,86.57
2023-03-18T08:12:52.090Z,83.21
2023-03-18T08:15:22.492Z,83.02
2023-03-18T08:17:51.140Z,84.56
2023-03-18T08:20:21.488Z,79.97
2023-03-18T08:22:53.834Z,82.68
2023-03-18T08:25:23.530Z,83.12
2023-03-18T08:27:54.675Z,81.49
2023-03-18T08:30:25.626Z,83.50
2023-03-18T08:32:53.931Z,81.50
2023-03-18T08:35:23.795Z,77.27
2023-03-18T08:38:10.980Z,81.04
2023-03-18T08:40:57.946Z,79.52
2023-03-18T08:43:28.563Z,86.90
2023-03-18T08:45:58.913Z,87.25
2023-03-18T08:48:27.871Z,87.43
2023-03-18T08:50:55.910Z,89.34
2023-03-18T08:53:23.991Z,82.83
2023-03-18T08:55:52.381Z,81.20
2023-03-18T08:58:20.820Z,81.76
2023-03-18T09:00:52.445Z,82.70
2023-03-18T09:03:21.706Z,79.64
2023-03-18T09:05:49.908Z,77.88
2023-03-18T09:08:18.317Z,78.53
2023-03-18T09:10:46.761Z,75.19
2023-03-18T09:13:15.468Z,74.12
2023-03-18T09:15:43.447Z,75.56
2023-03-18T09:18:16.513Z,79.22
2023-03-18T09:20:45.285Z,75.79
2023-03-18T09:23:13.944Z,70.39
2023-03-18T09:25:42.639Z,72.02
2023-03-18T09:28:10.824Z,73.51
2023-03-18T09:30:40.166Z,69.65
2023-03-18T09:33:09.270Z,68.24
2023-03-18T09:35:38.845Z,71.00
2023-03-18T09:38:08.126Z,68.07
2023-03-18T09:40:38.439Z,67.61
2023-03-18T09:43:13.281Z,69.56
2023-03-18T09:45:47.006Z,69.20
2023-03-18T09:48:30.756Z,70.19
2023-03-18T09:51:07.217Z,74.90
2023-03-18T09:53:42.130Z,69.64
2023-03-18T09:56:16.390Z,69.40
2023-03-18T09:58:48.010Z,69.81
2023-03-18T10:01:16.729Z,66.01
2023-03-18T10:03:48.933Z,66.56
2023-03-18T10:06:20.529Z,71.17
2023-03-18T10:08:54.162Z,66.15
2023-03-18T10:11:24.963Z,67.61
2023-03-18T10:14:01.983Z,63.47
2023-03-18T10:16:32.039Z,63.16
2023-03-18T10:19:00.875Z,64.99
2023-03-18T10:21:39.957Z,62.55
2023-03-18T10:24:17.105Z,66.38
2023-03-18T10:26:48.823Z,66.20
2023-03-18T10:29:29.990Z,64.91
2023-03-18T10:32:09.534Z,64.85
2023-03-18T10:34:41.978Z,65.56
2023-03-18T10:37:22.130Z,66.05
2023-03-18T10:39:55.041Z,70.48
2023-03-18T10:42:29.823Z,66.37
2023-03-18T10:45:11.135Z,66.42
2023-03-18T10:47:42.939Z,66.40
2023-03-18T10:50:17.411Z,70.12
2023-03-18T10:52:56.841Z,63.86
2023-03-18T10:55:28.575Z,64.77
2023-03-18T10:57:57.006Z,63.54
2023-03-18T11:00:28.383Z,63.75
2023-03-18T11:02:59.805Z,64.09
2023-03-18T11:05:29.490Z,60.37
2023-03-18T11:08:00.983Z,62.53
2023-03-18T11:10:34.620Z,61.66
2023-03-18T11:13:03.381Z,62.25
2023-03-18T11:15:37.286Z,60.52
2023-03-18T11:18:06.302Z,59.35
2023-03-18T11:20:43.198Z,59.12
2023-03-18T11:23:18.103Z,55.05
2023-03-18T11:25:48.618Z,57.99
2023-03-18T11:28:27.230Z,57.28
2023-03-18T11:30:59.040Z,59.40
2023-03-18T11:33:32.950Z,55.34
2023-03-18T11:36:05.742Z,55.00
2023-03-18T11:38:36.700Z,57.37
2023-03-18T11:41:09.282Z,51.39
2023-03-18T11:43:40.086Z,55.02
2023-03-18T11:46:10.536Z,56.42
2023-03-18T11:48:39.685Z,52.27
2023-03-18T11:51:27.349Z,54.33
2023-03-18T11:54:10.566Z,55.38
2023-03-18T11:56:44.066Z,57.33
2023-03-18T11:59:29.008Z,57.73
2023-03-18T12:02:01.665Z,57.75
2023-03-18T12:04:38.287Z,54.09
2023-03-18T12:07:24.829Z,56.83
2023-03-18T12:10:00.258Z,59.96
2023-03-18T12:12:40.472Z,56.96
2023-03-18T12:15:14.503Z,58.10
2023-03-18T12:17:45.404Z,58.13
2023-03-18T12:20:42.757Z,57.96
2023-03-18T12:23:14.257Z,56.10
2023-03-18T12:26:03.481Z,55.38
2023-03-18T12:28:46.597Z,57.00
2023-03-18T12:31:36.445Z,56.08
2023-03-18T12:34:14.631Z,55.50
2023-03-18T12:36:50.357Z,55.82
2023-03-18T12:39:23.638Z,56.91
2023-03-18T12:42:01.456Z,54.18
2023-03-18T12:44:38.914Z,53.38
2023-03-18T12:47:10.318Z,53.09
2023-03-18T12:49:43.214Z,52.23
2023-03-18T12:52:15.044Z,52.55
2023-03-18T12:54:47.403Z,53.96
2023-03-18T12:57:22.025Z,53.47
2023-03-18T12:59:56.725Z,53.95
2023-03-18T13:02:40.181Z,54.40
2023-03-18T13:05:20.670Z,53.46
2023-03-18T13:07:50.996Z,52.30
2023-03-18T13:10:23.389Z,50.13
2023-03-18T13:12:53.129Z,51.58
2023-03-18T13:15:24.970Z,52.32
2023-03-18T13:17:56.298Z,51.51
2023-03-18T13:20:28.288Z,54.38
2023-03-18T13:23:05.251Z,51.94
2023-03-18T13:25:40.973Z,51.46
2023-03-18T13:28:22.851Z,52.53
2023-03-18T13:30:59.430Z,52.23
2023-03-18T13:33:35.530Z,50.34
2023-03-18T13:36:18.711Z,51.47
2023-03-18T13:38:53.962Z,48.03
2023-03-18T13:41:32.647Z,47.47
2023-03-18T13:44:01.759Z,45.87
2023-03-18T13:46:31.969Z,47.97
2023-03-18T13:49:01.138Z,48.34
2023-03-18T13:51:50.295Z,47.23
2023-03-18T13:54:21.632Z,46.22
2023-03-18T13:56:52.847Z,46.33
2023-03-18T13:59:48.515Z,46.97
2023-03-18T14:02:43.795Z,45.64
2023-03-18T14:05:33.330Z,44.08
2023-03-18T14:08:05.124Z,43.97
2023-03-18T14:10:34.637Z,44.54
2023-03-18T14:13:17.884Z,44.47
2023-03-18T14:15:46.449Z,45.64
2023-03-18T14:18:27.250Z,44.75
2023-03-18T14:21:01.368Z,45.74
2023-03-18T14:23:33.429Z,45.96
2023-03-18T14:26:04.437Z,47.06
2023-03-18T14:28:40.105Z,46.74
2023-03-18T14:31:22.251Z,45.91
2023-03-18T14:33:59.362Z,47.81
2023-03-18T14:36:49.421Z,48.46
2023-03-18T14:39:22.749Z,47.35
2023-03-18T14:41:54.682Z,50.62
2023-03-18T14:44:26.644Z,48.95
2023-03-18T14:46:58.124Z,50.18
2023-03-18T14:49:33.762Z,51.83
2023-03-18T14:52:03.039Z,51.57
2023-03-18T14:54:33.837Z,50.07
2023-03-18T14:57:04.328Z,51.41
2023-03-18T14:59:32.490Z,52.78
2023-03-18T15:02:03.311Z,53.41
2023-03-18T15:04:33.217Z,53.53
2023-03-18T15:07:03.826Z,53.93
2023-03-18T15:09:35.091Z,53.18
2023-03-18T15:12:18.417Z,52.72
2023-03-18T15:14:46.498Z,54.19
2023-03-18T15:17:16.131Z,54.29
2023-03-18T15:19:44.406Z,55.09
2023-03-18T15:22:18.908Z,54.31
2023-03-18T15:24:47.212Z,54.57
2023-03-18T15:27:20.479Z,52.57
2023-03-18T15:29:52.647Z,52.95
2023-03-18T15:32:21.911Z,52.44
2023-03-18T15:34:53.089Z,52.48
2023-03-18T15:37:34.165Z,50.92
2023-03-18T15:40:16.258Z,52.86
2023-03-18T15:42:46.108Z,52.58
2023-03-18T15:45:19.262Z,53.97
2023-03-18T15:47:48.060Z,54.17
2023-03-18T15:50:25.487Z,53.98
2023-03-18T15:53:03.057Z,55.34
2023-03-18T15:55:34.250Z,55.11
2023-03-18T15:58:05.391Z,54.70
2023-03-18T16:00:34.922Z,54.89
2023-03-18T16:03:03.001Z,55.70
2023-03-18T16:05:33.628Z,53.97
2023-03-18T16:08:01.786Z,55.69
2023-03-18T16:10:29.971Z,55.63
2023-03-18T16:13:01.673Z,56.80
2023-03-18T16:15:32.102Z,57.34
2023-03-18T16:18:01.013Z,57.32
2023-03-18T16:20:30.584Z,57.81
2023-03-18T16:22:59.976Z,57.94
2023-03-18T16:25:28.071Z,58.77
2023-03-18T16:28:00.718Z,60.05
2023-03-18T16:30:30.704Z,59.89
2023-03-18T16:33:00.359Z,60.51
2023-03-18T16:35:32.591Z,60.25
2023-03-18T16:38:02.384Z,60.85
2023-03-18T16:40:32.065Z,60.42
2023-03-18T16:43:00.726Z,61.06
2023-03-18T16:45:30.793Z,61.92
2023-03-18T16:48:02.743Z,61.66
2023-03-18T16:50:32.475Z,61.89
2023-03-18T16:53:00.692Z,63.36
2023-03-18T16:55:29.458Z,62.66
2023-03-18T16:57:59.931Z,63.76
2023-03-18T17:00:32.857Z,65.47
2023-03-18T17:03:02.776Z,64.45
2023-03-18T17:05:31.365Z,66.00
2023-03-18T17:08:01.162Z,65.27
2023-03-18T17:10:29.569Z,66.79
2023-03-18T17:12:59.420Z,66.33
2023-03-18T17:15:29.800Z,67.51
2023-03-18T17:17:59.949Z,68.98
2023-03-18T17:20:32.525Z,69.92
2023-03-18T17:23:00.804Z,70.78
2023-03-18T17:25:31.153Z,70.33
2023-03-18T17:28:01.141Z,71.04
2023-03-18T17:30:31.600Z,71.88
2023-03-18T17:33:00.560Z,72.94
2023-03-18T17:35:28.799Z,73.20
2023-03-18T17:37:58.196Z,74.27
2023-03-18T17:40:29.425Z,74.98
2023-03-18T17:42:57.593Z,75.75
2023-03-18T17:45:27.180Z,77.10
2023-03-18T17:47:56.550Z,78.28
2023-03-18T17:50:24.935Z,79.69
2023-03-18T17:52:55.792Z,80.37
2023-03-18T17:55:27.222Z,82.94
2023-03-18T17:57:55.571Z,83.97
2023-03-18T18:00:26.237Z,86.98
2023-03-18T18:02:55.688Z,90.51
2023-03-18T18:05:24.125Z,96.31
2023-03-18T18:07:53.144Z,98.42
2023-03-18T18:10:22.246Z,100.00
2023-03-18T18:12:53.436Z,100.00
2023-03-18T18:15:22.464Z,100.00
2023-03-18T18:17:50.457Z,100.00
2023-03-18T18:20:21.365Z,100.00
2023-03-18T18:22:51.768Z,100.00
2023-03-18T18:25:21.646Z,100.00
2023-03-18T18:27:50.167Z,100.00
2023-03-18T18:30:24.171Z,100.00
2023-03-18T18:32:52.368Z,100.00
2023-03-18T18:35:21.938Z,100.00
2023-03-18T18:37:51.068Z,100.00
2023-03-18T18:40:20.169Z,100.00
2023-03-18T18:42:48.668Z,100.00
2023-03-18T18:45:18.073Z,100.00
2023-03-18T18:47:47.654Z,100.00
2023-03-18T18:50:17.770Z,100.00
2023-03-18T18:52:46.031Z,100.00
2023-03-18T18:55:14.827Z,100.00
2023-03-18T18:57:44.024Z,100.00
2023-03-18T19:00:17.479Z,100.00
2023-03-18T19:02:47.691Z,100.00
2023-03-18T19:05:17.783Z,100.00
2023-03-18T19:07:46.473Z,100.00
2023-03-18T19:10:15.995Z,100.00
2023-03-18T19:12:45.148Z,100.00
2023-03-18T19:15:15.611Z,100.00
2023-03-18T19:17:44.136Z,100.00
2023-03-18T19:20:23.052Z,100.00
2023-03-18T19:22:51.225Z,100.00
2023-03-18T19:25:19.604Z,100.00
2023-03-18T19:27:47.729Z,100.00
2023-03-18T19:30:20.921Z,100.00
2023-03-18T19:32:49.266Z,100.00
2023-03-18T19:35:18.590Z,100.00
2023-03-18T19:37:48.230Z,100.00
2023-03-18T19:40:21.879Z,100.00
2023-03-18T19:42:51.262Z,100.00
2023-03-18T19:45:20.034Z,100.00
2023-03-18T19:47:48.258Z,100.00
2023-03-18T19:50:21.434Z,100.00
2023-03-18T19:52:50.239Z,100.00
2023-03-18T19:55:18.646Z,100.00
2023-03-18T19:57:50.867Z,100.00
2023-03-18T20:00:23.770Z,100.00
2023-03-18T20:02:54.258Z,100.00
2023-03-18T20:05:25.774Z,100.00
2023-03-18T20:07:54.477Z,100.00
2023-03-18T20:10:22.450Z,100.00
2023-03-18T20:12:51.533Z,100.00
2023-03-18T20:15:24.016Z,100.00
2023-03-18T20:17:52.979Z,100.00
2023-03-18T20:20:22.432Z,100.00
2023-03-18T20:22:53.318Z,100.00
2023-03-18T20:25:29.795Z,100.00
2023-03-18T20:27:58.827Z,100.00
2023-03-18T20:30:30.491Z,100.00
2023-03-18T20:33:00.233Z,100.00
2023-03-18T20:35:29.504Z,100.00
2023-03-18T20:38:00.997Z,100.00
2023-03-18T20:40:30.503Z,100.00
2023-03-18T20:42:58.705Z,100.00
2023-03-18T20:45:27.284Z,100.00
2023-03-18T20:47:56.638Z,100.00
2023-03-18T20:50:31.122Z,100.00
2023-03-18T20:53:02.534Z,100.00
2023-03-18T20:55:32.249Z,100.00
2023-03-18T20:58:01.120Z,100.00
2023-03-18T21:00:31.279Z,100.00
2023-03-18T21:03:00.102Z,100.00
2023-03-18T21:05:29.768Z,100.00
2023-03-18T21:07:57.839Z,100.00
2023-03-18T21:10:28.201Z,100.00
2023-03-18T21:12:56.420Z,100.00
2023-03-18T21:15:24.998Z,100.00
2023-03-18T21:17:53.439Z,100.00
2023-03-18T21:20:26.362Z,100.00
2023-03-18T21:22:56.116Z,100.00
2023-03-18T21:25:26.126Z,100.00
2023-03-18T21:27:56.149Z,100.00
2023-03-18T21:30:24.622Z,100.00
2023-03-18T21:32:52.628Z,100.00
2023-03-18T21:35:24.039Z,100.00
2023-03-18T21:37:52.494Z,100.00
2023-03-18T21:40:21.858Z,100.00
2023-03-18T21:42:50.010Z,100.00
2023-03-18T21:45:20.925Z,100.00
2023-03-18T21:47:49.320Z,100.00
2023-03-18T21:50:22.308Z,100.00
2023-03-18T21:52:50.915Z,100.00
2023-03-18T21:55:19.260Z,100.00
2023-03-18T21:57:48.980Z,100.00
2023-03-18T22:00:20.508Z,100.00
2023-03-18T22:02:49.198Z,100.00
2023-03-18T22:05:18.859Z,100.00
2023-03-18T22:07:47.870Z,100.00
2023-03-18T22:10:16.971Z,100.00
2023-03-18T22:12:45.493Z,100.00
2023-03-18T22:15:29.766Z,100.00
2023-03-18T22:17:58.343Z,100.00
2023-03-18T22:20:26.852Z,100.00
2023-03-18T22:22:55.139Z,100.00
2023-03-18T22:25:27.251Z,100.00
2023-03-18T22:27:55.428Z,100.00
2023-03-18T22:30:24.833Z,100.00
2023-03-18T22:32:54.638Z,100.00
2023-03-18T22:35:24.199Z,100.00
2023-03-18T22:37:52.973Z,100.00
2023-03-18T22:40:25.190Z,100.00
2023-03-18T22:42:55.612Z,100.00
2023-03-18T22:45:26.386Z,100.00
2023-03-18T22:47:55.827Z,100.00
2023-03-18T22:50:25.305Z,100.00
2023-03-18T22:52:57.084Z,100.00
2023-03-18T22:55:26.797Z,100.00
2023-03-18T22:57:56.429Z,100.00
2023-03-18T23:00:31.830Z,100.00
2023-03-18T23:03:01.293Z,100.00
2023-03-18T23:05:29.605Z,100.00
2023-03-18T23:07:58.441Z,100.00
2023-03-18T23:10:26.474Z,100.00
2023-03-18T23:12:54.616Z,100.00
2023-03-18T23:15:23.742Z,100.00
2023-03-18T23:17:53.595Z,100.00
2023-03-18T23:20:21.841Z,100.00
2023-03-18T23:22:49.806Z,100.00
2023-03-18T23:25:18.629Z,100.00
2023-03-18T23:27:48.636Z,100.00
2023-03-18T23:30:16.729Z,100.00
2023-03-18T23:32:45.239Z,100.00
2023-03-18T23:35:14.883Z,100.00
2023-03-18T23:37:44.376Z,100.00
2023-03-18T23:40:13.086Z,100.00
2023-03-18T23:42:43.813Z,100.00
2023-03-18T23:45:14.065Z,100.00
2023-03-18T23:47:43.032Z,100.00
2023-03-18T23:50:12.151Z,100.00
2023-03-18T23:52:41.869Z,100.00
2023-03-18T23:55:30.510Z,100.00
2023-03-18T23:57:59.473Z,100.00
